Time;durP1;ratioP1;P1;durP2;ratioP2;P2;SDS_P1;SDS_P2;PMS_P1;PMS_P2;Temp;Humidity;BMP_temperature;BMP_pressure;BME280_temperature;BME280_humidity;BME280_pressure;Samples;Min_cycle;Max_cycle;Signal;HPM_P1;HPM_P2
2021/08/19 00:01:47;;;;;;;;;;;14.80;99.90;;;;;;5074955;28;19925;-83
2021/08/19 00:04:14;;;;;;;;;;;14.80;99.90;;;;;;5076005;28;19925;-83
2021/08/19 00:06:42;;;;;;;;;;;14.80;99.90;;;;;;5079263;28;19924;-83
2021/08/19 00:09:09;;;;;;;;;;;14.70;99.90;;;;;;5078919;28;19931;-83
2021/08/19 00:11:35;;;;;;;;;;;14.70;99.90;;;;;;5078956;28;19924;-83
2021/08/19 00:14:02;;;;;;;;;;;14.70;99.90;;;;;;5078961;28;19931;-83
2021/08/19 00:16:29;;;;;;;;;;;14.70;99.90;;;;;;5078721;28;20256;-83
2021/08/19 00:18:56;;;;;;;;;;;14.70;99.90;;;;;;5078709;28;19938;-83
2021/08/19 00:21:23;;;;;;;;;;;14.70;99.90;;;;;;5078841;28;19924;-82
2021/08/19 00:23:51;;;;;;;;;;;14.70;99.90;;;;;;5078681;28;19935;-83
2021/08/19 00:26:18;;;;;;;;;;;14.70;99.90;;;;;;5078601;28;19938;-83
2021/08/19 00:28:45;;;;;;;;;;;14.60;99.90;;;;;;5078745;28;19931;-83
2021/08/19 00:31:11;;;;;;;;;;;14.60;99.90;;;;;;5078618;28;19925;-83
2021/08/19 00:33:38;;;;;;;;;;;14.60;99.90;;;;;;5078843;28;20026;-83
2021/08/19 00:36:05;;;;;;;;;;;14.60;99.90;;;;;;5078297;28;20264;-83
2021/08/19 00:38:32;;;;;;;;;;;14.60;99.90;;;;;;5078221;28;19924;-83
2021/08/19 00:41:00;;;;;;;;;;;14.60;99.90;;;;;;5078351;28;19931;-83
2021/08/19 00:43:27;;;;;;;;;;;14.60;99.90;;;;;;5078222;28;19931;-83
2021/08/19 00:45:54;;;;;;;;;;;14.60;99.90;;;;;;5078142;28;19924;-83
2021/08/19 00:48:21;;;;;;;;;;;14.60;99.90;;;;;;5078085;28;20275;-83
2021/08/19 00:50:48;;;;;;;;;;;14.60;99.90;;;;;;5078014;28;20432;-83
2021/08/19 00:53:14;;;;;;;;;;;14.60;99.90;;;;;;5078429;28;19936;-83
2021/08/19 00:55:42;;;;;;;;;;;14.60;99.90;;;;;;5078120;28;20338;-83
2021/08/19 00:58:10;;;;;;;;;;;14.60;99.90;;;;;;5077404;28;19924;-83
2021/08/19 01:00:37;;;;;;;;;;;14.60;99.90;;;;;;5076696;28;19934;-83
2021/08/19 01:03:04;;;;;;;;;;;14.60;99.90;;;;;;5076977;28;19934;-83
2021/08/19 01:05:31;;;;;;;;;;;14.60;99.90;;;;;;5076646;28;20256;-83
2021/08/19 01:07:58;;;;;;;;;;;14.60;99.90;;;;;;5076731;28;19939;-83
2021/08/19 01:10:26;;;;;;;;;;;14.60;99.90;;;;;;5076822;28;19925;-83
2021/08/19 01:12:53;;;;;;;;;;;14.60;99.90;;;;;;5076465;28;20348;-82
2021/08/19 01:15:21;;;;;;;;;;;14.60;99.90;;;;;;5076277;28;19924;-83
2021/08/19 01:17:53;;;;;;;;;;;14.60;99.90;;;;;;5076602;28;19991;-83
2021/08/19 01:20:21;;;;;;;;;;;14.60;99.90;;;;;;5076593;28;19935;-82
2021/08/19 01:22:47;;;;;;;;;;;14.60;99.90;;;;;;5076102;28;19935;-83
2021/08/19 01:25:15;;;;;;;;;;;14.60;99.90;;;;;;5076720;28;19924;-82
2021/08/19 01:27:43;;;;;;;;;;;14.60;99.90;;;;;;5076459;28;19925;-83
2021/08/19 01:30:10;;;;;;;;;;;14.60;99.90;;;;;;5076241;28;19924;-83
2021/08/19 01:32:37;;;;;;;;;;;14.60;99.90;;;;;;5076493;28;19924;-83
2021/08/19 01:35:04;;;;;;;;;;;14.60;99.90;;;;;;5076253;28;20341;-82
2021/08/19 01:37:31;;;;;;;;;;;14.60;99.90;;;;;;5076327;28;20259;-82
2021/08/19 01:39:58;;;;;;;;;;;14.60;99.90;;;;;;5076133;28;19928;-82
2021/08/19 01:42:25;;;;;;;;;;;14.60;99.90;;;;;;5075991;28;20362;-83
2021/08/19 01:44:53;;;;;;;;;;;14.60;99.90;;;;;;5076016;28;19988;-83
2021/08/19 01:47:22;;;;;;;;;;;14.60;99.90;;;;;;5076256;28;20299;-82
2021/08/19 01:49:48;;;;;;;;;;;14.60;99.90;;;;;;5075917;28;20027;-82
2021/08/19 01:52:15;;;;;;;;;;;14.60;99.90;;;;;;5076042;28;19931;-82
2021/08/19 01:54:42;;;;;;;;;;;14.50;99.90;;;;;;5075910;28;20344;-83
2021/08/19 01:57:09;;;;;;;;;;;14.60;99.90;;;;;;5075804;28;19935;-82
2021/08/19 01:59:36;;;;;;;;;;;14.50;99.90;;;;;;5010277;28;1873540;-82
2021/08/19 02:02:04;;;;;;;;;;;14.50;99.90;;;;;;5076782;28;20352;-82
2021/08/19 02:04:31;;;;;;;;;;;14.50;99.90;;;;;;5076916;28;20002;-82
2021/08/19 02:06:58;;;;;;;;;;;14.50;99.90;;;;;;5076854;28;20366;-82
2021/08/19 02:09:24;;;;;;;;;;;14.60;99.90;;;;;;5076575;28;19925;-82
2021/08/19 02:11:51;;;;;;;;;;;14.50;99.90;;;;;;5076493;28;19935;-82
2021/08/19 02:14:18;;;;;;;;;;;14.50;99.90;;;;;;5076518;28;20026;-82
2021/08/19 02:16:45;;;;;;;;;;;14.50;99.90;;;;;;5076496;28;19934;-82
2021/08/19 02:19:13;;;;;;;;;;;14.50;99.90;;;;;;5076658;28;19924;-82
2021/08/19 02:21:40;;;;;;;;;;;14.50;99.90;;;;;;5076474;28;20256;-82
2021/08/19 02:24:07;;;;;;;;;;;14.50;99.90;;;;;;5076530;28;19930;-82
2021/08/19 02:26:34;;;;;;;;;;;14.50;99.90;;;;;;5075793;28;19925;-82
2021/08/19 02:29:00;;;;;;;;;;;14.50;99.90;;;;;;5076433;28;19935;-82
2021/08/19 02:31:27;;;;;;;;;;;14.50;99.90;;;;;;5076359;28;20230;-82
2021/08/19 02:33:54;;;;;;;;;;;14.50;99.90;;;;;;5076277;28;19924;-82
2021/08/19 02:36:22;;;;;;;;;;;14.50;99.90;;;;;;5076312;28;19924;-82
2021/08/19 02:38:49;;;;;;;;;;;14.50;99.90;;;;;;5076035;28;20250;-83
2021/08/19 02:41:16;;;;;;;;;;;14.50;99.90;;;;;;5075953;28;19924;-82
2021/08/19 02:43:43;;;;;;;;;;;14.50;99.90;;;;;;5076267;28;19925;-82
2021/08/19 02:46:10;;;;;;;;;;;14.50;99.90;;;;;;5076004;28;19924;-82
2021/08/19 02:48:37;;;;;;;;;;;14.50;99.90;;;;;;5075924;28;19925;-82
2021/08/19 02:51:04;;;;;;;;;;;14.40;99.90;;;;;;5076072;28;19925;-82
2021/08/19 02:53:32;;;;;;;;;;;14.40;99.90;;;;;;5075868;28;20340;-82
2021/08/19 02:55:59;;;;;;;;;;;14.40;99.90;;;;;;5075885;28;19932;-82
2021/08/19 02:58:26;;;;;;;;;;;14.40;99.90;;;;;;5075549;28;19924;-82
2021/08/19 03:00:53;;;;;;;;;;;14.40;99.90;;;;;;5075825;28;19935;-82
2021/08/19 03:03:20;;;;;;;;;;;14.50;99.90;;;;;;5075643;28;20364;-82
2021/08/19 03:05:46;;;;;;;;;;;14.50;99.90;;;;;;5075556;28;19936;-82
2021/08/19 03:08:13;;;;;;;;;;;14.40;99.90;;;;;;5075661;28;19935;-82
2021/08/19 03:10:41;;;;;;;;;;;14.40;99.90;;;;;;5075477;28;20356;-82
2021/08/19 03:13:08;;;;;;;;;;;14.40;99.90;;;;;;5075601;28;19924;-82
2021/08/19 03:15:35;;;;;;;;;;;14.40;99.90;;;;;;5075456;28;19925;-82
2021/08/19 03:18:02;;;;;;;;;;;14.40;99.90;;;;;;5075285;28;19935;-82
2021/08/19 03:20:29;;;;;;;;;;;14.40;99.90;;;;;;5075331;28;20039;-82
2021/08/19 03:22:55;;;;;;;;;;;14.40;99.90;;;;;;5075560;28;19924;-82
2021/08/19 03:25:22;;;;;;;;;;;14.40;99.90;;;;;;5075354;28;19934;-82
2021/08/19 03:27:56;;;;;;;;;;;14.40;99.90;;;;;;5075168;28;19971;-82
2021/08/19 03:30:23;;;;;;;;;;;14.40;99.90;;;;;;5075411;28;20006;-82
2021/08/19 03:32:50;;;;;;;;;;;14.40;99.90;;;;;;5075235;28;19935;-82
2021/08/19 03:35:17;;;;;;;;;;;14.40;99.90;;;;;;5075153;28;19924;-82
2021/08/19 03:37:44;;;;;;;;;;;14.40;99.90;;;;;;5075190;28;19925;-82
2021/08/19 03:40:11;;;;;;;;;;;14.40;99.90;;;;;;5075145;28;19924;-82
2021/08/19 03:42:38;;;;;;;;;;;14.30;99.90;;;;;;5075066;28;19924;-82
2021/08/19 03:45:08;;;;;;;;;;;14.40;99.90;;;;;;5075325;28;19950;-82
2021/08/19 03:47:35;;;;;;;;;;;14.30;99.90;;;;;;5075001;28;19935;-82
2021/08/19 03:50:03;;;;;;;;;;;14.40;99.90;;;;;;5075261;28;19925;-82
2021/08/19 03:52:30;;;;;;;;;;;14.40;99.90;;;;;;5075155;28;20260;-82
2021/08/19 03:54:57;;;;;;;;;;;14.40;99.90;;;;;;5075240;28;19935;-82
2021/08/19 03:57:24;;;;;;;;;;;14.40;99.90;;;;;;5074953;28;19947;-82
2021/08/19 03:59:51;;;;;;;;;;;14.30;99.90;;;;;;5074642;28;19935;-82
2021/08/19 04:02:19;;;;;;;;;;;14.30;99.90;;;;;;5074877;28;19924;-82
2021/08/19 04:04:46;;;;;;;;;;;14.30;99.90;;;;;;5074799;28;19935;-82
2021/08/19 04:07:12;;;;;;;;;;;14.30;99.90;;;;;;5075041;28;19935;-82
2021/08/19 04:09:39;;;;;;;;;;;14.30;99.90;;;;;;5074981;28;20276;-82
2021/08/19 04:12:06;;;;;;;;;;;14.30;99.90;;;;;;5074743;28;19931;-82
2021/08/19 04:14:33;;;;;;;;;;;14.30;99.90;;;;;;5074834;28;20028;-82
2021/08/19 04:17:00;;;;;;;;;;;14.30;99.90;;;;;;5074686;28;19925;-82
2021/08/19 04:19:28;;;;;;;;;;;14.20;99.90;;;;;;5074751;28;19935;-82
2021/08/19 04:21:55;;;;;;;;;;;14.20;99.90;;;;;;5074892;28;19951;-82
2021/08/19 04:24:22;;;;;;;;;;;14.30;99.90;;;;;;5074768;28;19924;-82
2021/08/19 04:26:49;;;;;;;;;;;14.30;99.90;;;;;;5074747;28;20344;-82
2021/08/19 04:29:15;;;;;;;;;;;14.30;99.90;;;;;;5074577;28;19932;-82
2021/08/19 04:31:42;;;;;;;;;;;14.30;99.90;;;;;;5074643;28;19925;-83
2021/08/19 04:34:09;;;;;;;;;;;14.20;99.90;;;;;;5074611;28;20340;-82
2021/08/19 04:36:37;;;;;;;;;;;14.30;99.90;;;;;;5074717;28;20284;-82
2021/08/19 04:39:04;;;;;;;;;;;14.20;99.90;;;;;;5074467;28;19937;-82
2021/08/19 04:41:31;;;;;;;;;;;14.20;99.90;;;;;;5074563;28;19938;-82
2021/08/19 04:43:58;;;;;;;;;;;14.20;99.90;;;;;;5074519;28;20356;-82
2021/08/19 04:46:25;;;;;;;;;;;14.20;99.90;;;;;;5074474;28;19925;-82
2021/08/19 04:48:51;;;;;;;;;;;14.20;99.90;;;;;;5074709;28;19925;-82
2021/08/19 04:51:18;;;;;;;;;;;14.20;99.90;;;;;;5077225;28;19929;-82
2021/08/19 04:53:46;;;;;;;;;;;14.20;99.90;;;;;;5078222;28;20320;-82
2021/08/19 04:56:13;;;;;;;;;;;14.20;99.90;;;;;;5078062;28;19924;-82
2021/08/19 04:58:40;;;;;;;;;;;14.20;99.90;;;;;;5077730;28;20252;-82
2021/08/19 05:01:07;;;;;;;;;;;14.20;99.90;;;;;;5077828;28;19936;-82
2021/08/19 05:03:34;;;;;;;;;;;14.20;99.90;;;;;;5078021;28;19924;-82
2021/08/19 05:06:00;;;;;;;;;;;14.20;99.90;;;;;;5078143;28;19939;-82
2021/08/19 05:08:27;;;;;;;;;;;14.20;99.90;;;;;;5077820;28;20267;-82
2021/08/19 05:10:55;;;;;;;;;;;14.20;99.90;;;;;;5077723;28;19934;-83
2021/08/19 05:13:23;;;;;;;;;;;14.20;99.90;;;;;;5077684;28;20245;-82
2021/08/19 05:15:50;;;;;;;;;;;14.20;99.90;;;;;;5077696;28;19986;-82
2021/08/19 05:18:17;;;;;;;;;;;14.20;99.90;;;;;;5077817;28;19925;-82
2021/08/19 05:20:44;;;;;;;;;;;14.20;99.90;;;;;;5077548;28;19924;-82
2021/08/19 05:23:11;;;;;;;;;;;14.20;99.90;;;;;;5077653;28;19935;-82
2021/08/19 05:25:37;;;;;;;;;;;14.20;99.90;;;;;;5077614;28;19924;-82
2021/08/19 05:28:06;;;;;;;;;;;14.20;99.90;;;;;;5077530;28;20344;-82
2021/08/19 05:30:32;;;;;;;;;;;14.20;99.90;;;;;;5077322;28;19924;-82
2021/08/19 05:32:59;;;;;;;;;;;14.20;99.90;;;;;;5077526;28;19935;-82
2021/08/19 05:35:26;;;;;;;;;;;14.20;99.90;;;;;;5077576;28;20260;-82
2021/08/19 05:37:53;;;;;;;;;;;14.20;99.90;;;;;;5077397;28;19931;-82
2021/08/19 05:40:20;;;;;;;;;;;14.20;99.90;;;;;;5077130;28;19924;-82
2021/08/19 05:42:47;;;;;;;;;;;14.20;99.90;;;;;;5077039;28;20275;-82
2021/08/19 05:45:15;;;;;;;;;;;14.20;99.90;;;;;;5077080;28;19925;-83
2021/08/19 05:47:42;;;;;;;;;;;14.20;99.90;;;;;;5077049;28;19928;-82
2021/08/19 05:50:14;;;;;;;;;;;14.30;99.90;;;;;;5076969;28;19924;-82
2021/08/19 05:52:40;;;;;;;;;;;14.30;99.90;;;;;;5076956;28;20245;-83
2021/08/19 05:55:09;;;;;;;;;;;14.30;99.90;;;;;;5076982;28;19924;-77
2021/08/19 05:57:36;;;;;;;;;;;14.30;99.90;;;;;;5076593;28;19934;-76
2021/08/19 06:00:04;;;;;;;;;;;14.30;99.90;;;;;;5076927;28;19924;-77
2021/08/19 06:02:34;;;;;;;;;;;14.30;99.90;;;;;;5075831;28;19936;-76
2021/08/19 06:05:01;;;;;;;;;;;14.30;99.90;;;;;;5076724;28;19925;-77
2021/08/19 06:07:29;;;;;;;;;;;14.40;99.90;;;;;;5076743;28;20359;-77
2021/08/19 06:09:56;;;;;;;;;;;14.40;99.90;;;;;;5076595;28;19932;-77
2021/08/19 06:12:23;;;;;;;;;;;14.40;99.90;;;;;;5076574;28;20344;-77
2021/08/19 06:14:51;;;;;;;;;;;14.40;99.90;;;;;;5076379;28;19932;-77
2021/08/19 06:17:18;;;;;;;;;;;14.40;99.90;;;;;;5075511;28;19994;-77
2021/08/19 06:19:46;;;;;;;;;;;14.40;99.90;;;;;;5076280;28;19934;-78
2021/08/19 06:22:13;;;;;;;;;;;14.40;99.90;;;;;;5075802;28;19925;-77
2021/08/19 06:24:40;;;;;;;;;;;14.30;99.90;;;;;;5076213;28;19924;-76
2021/08/19 06:27:07;;;;;;;;;;;14.30;99.90;;;;;;5076275;28;19925;-76
2021/08/19 06:29:34;;;;;;;;;;;14.30;99.90;;;;;;5076480;28;19924;-76
2021/08/19 06:32:00;;;;;;;;;;;14.40;99.90;;;;;;5076287;28;19935;-76
2021/08/19 06:34:28;;;;;;;;;;;14.40;99.90;;;;;;5076181;28;19924;-77
2021/08/19 06:36:57;;;;;;;;;;;14.50;99.90;;;;;;5076200;28;19924;-77
2021/08/19 06:39:23;;;;;;;;;;;14.60;99.90;;;;;;5076064;28;19928;-76
2021/08/19 06:41:50;;;;;;;;;;;14.80;99.90;;;;;;5076262;28;19951;-77
2021/08/19 06:44:17;;;;;;;;;;;14.90;99.90;;;;;;5075986;28;19946;-77
2021/08/19 06:46:45;;;;;;;;;;;15.10;99.90;;;;;;5075773;28;19924;-77
2021/08/19 06:49:13;;;;;;;;;;;15.20;99.90;;;;;;5075729;28;19965;-77
2021/08/19 06:51:41;;;;;;;;;;;15.40;99.90;;;;;;5075695;28;19935;-77
2021/08/19 06:54:10;;;;;;;;;;;15.60;99.90;;;;;;5075648;28;19931;-77
2021/08/19 06:56:38;;;;;;;;;;;15.80;99.90;;;;;;5076045;28;19924;-77
2021/08/19 06:59:07;;;;;;;;;;;15.90;99.90;;;;;;5075585;28;19925;-77
2021/08/19 07:01:35;;;;;;;;;;;16.00;99.90;;;;;;5075952;28;19993;-77
2021/08/19 07:04:06;;;;;;;;;;;16.10;99.90;;;;;;5075724;28;19925;-76
2021/08/19 07:06:34;;;;;;;;;;;16.20;99.90;;;;;;5075662;28;19928;-76
2021/08/19 07:09:02;;;;;;;;;;;16.30;99.90;;;;;;5075541;28;19924;-76
2021/08/19 07:11:31;;;;;;;;;;;16.30;99.90;;;;;;5075412;28;20344;-76
2021/08/19 07:13:59;;;;;;;;;;;16.40;99.90;;;;;;5075264;28;19925;-76
2021/08/19 07:16:27;;;;;;;;;;;16.40;99.90;;;;;;5075685;28;19931;-76
2021/08/19 07:18:56;;;;;;;;;;;16.40;99.90;;;;;;5075285;28;20326;-75
2021/08/19 07:21:24;;;;;;;;;;;16.40;99.90;;;;;;5075375;28;19924;-76
2021/08/19 07:23:52;;;;;;;;;;;16.50;99.90;;;;;;5075306;28;20398;-76
2021/08/19 07:26:23;;;;;;;;;;;16.80;99.90;;;;;;5075364;28;19928;-76
2021/08/19 07:28:53;;;;;;;;;;;18.40;99.90;;;;;;5075312;28;19925;-75
2021/08/19 07:31:21;;;;;;;;;;;20.60;99.90;;;;;;5075129;28;19935;-75
2021/08/19 07:33:49;;;;;;;;;;;22.90;99.90;;;;;;5075021;28;19939;-75
2021/08/19 07:36:17;;;;;;;;;;;24.20;99.90;;;;;;5075232;28;19934;-76
2021/08/19 07:38:46;;;;;;;5.03;2.10;;;25.40;99.90;;;;;;5074116;28;20409;-78
2021/08/19 07:41:14;;;;;;;3.10;1.50;;;26.40;99.90;;;;;;5074615;28;20479;-78
2021/08/19 07:43:43;;;;;;;4.30;1.67;;;27.00;99.90;;;;;;5074725;28;20055;-78
2021/08/19 07:46:13;;;;;;;4.82;1.70;;;28.20;90.60;;;;;;5074608;28;20346;-79
2021/08/19 07:48:42;;;;;;;3.67;1.55;;;28.10;99.90;;;;;;5074573;28;20044;-79
2021/08/19 07:51:12;;;;;;;4.57;1.80;;;26.80;99.90;;;;;;5074786;28;20044;-78
2021/08/19 07:53:41;;;;;;;5.88;2.55;;;25.20;99.90;;;;;;5074583;28;20456;-78
2021/08/19 07:56:08;;;;;;;4.68;1.73;;;23.70;99.90;;;;;;5074596;28;20063;-78
2021/08/19 07:58:36;;;;;;;5.28;1.90;;;22.40;99.90;;;;;;5074201;28;20472;-78
2021/08/19 08:01:05;;;;;;;3.17;2.00;;;21.50;99.90;;;;;;5074586;28;20048;-78
2021/08/19 08:03:34;;;;;;;3.92;2.25;;;20.80;99.90;;;;;;5074718;28;20059;-78
2021/08/19 08:06:03;;;;;;;6.90;2.42;;;20.20;99.90;;;;;;5074463;28;20048;-78
2021/08/19 08:08:34;;;;;;;6.63;2.20;;;19.60;99.90;;;;;;5074457;28;20049;-78
2021/08/19 08:11:05;;;;;;;3.28;1.80;;;19.30;99.90;;;;;;5074489;28;20083;-78
2021/08/19 08:13:33;;;;;;;4.13;1.80;;;18.90;99.90;;;;;;5074303;28;20435;-78
2021/08/19 08:16:01;;;;;;;4.07;2.30;;;18.50;99.90;;;;;;5074236;28;20465;-78
2021/08/19 08:18:30;;;;;;;6.22;2.30;;;18.10;99.90;;;;;;5074279;28;20052;-78
2021/08/19 08:21:05;;;;;;;3.92;2.15;;;17.90;99.90;;;;;;5074342;28;20060;-78
2021/08/19 08:23:36;;;;;;;5.72;2.75;;;17.70;99.90;;;;;;5074383;28;20082;-78
2021/08/19 08:26:07;;;;;;;5.35;1.98;;;17.60;99.90;;;;;;5076760;28;20091;-78
2021/08/19 08:28:36;;;;;;;5.32;2.35;;;17.40;99.90;;;;;;5078321;28;20067;-78
2021/08/19 08:31:04;;;;;;;6.00;2.20;;;17.30;99.90;;;;;;5078015;28;20114;-77
2021/08/19 08:33:32;;;;;;;6.60;2.05;;;17.20;99.90;;;;;;5077968;28;20064;-77
2021/08/19 08:36:00;;;;;;;3.78;1.38;;;17.10;99.90;;;;;;5077178;28;20048;-78
2021/08/19 08:38:27;;;;;;;3.25;2.00;;;17.00;99.90;;;;;;5078013;28;20044;-76
2021/08/19 08:40:55;;;;;;;5.35;2.15;;;17.00;99.90;;;;;;5077252;28;20540;-75
2021/08/19 08:43:22;;;;;;;;;;;17.00;99.90;;;;;;5078352;28;20056;-75
2021/08/19 08:45:49;;;;;;;;;;;16.90;99.90;;;;;;5078374;28;19947;-75
2021/08/19 08:48:16;;;;;;;;;;;16.90;99.90;;;;;;5078253;28;19924;-75
2021/08/19 08:50:45;;;;;;;;;;;16.90;99.90;;;;;;5078186;28;19931;-75
2021/08/19 08:53:13;;;;;;;;;;;16.90;99.90;;;;;;5078304;28;19935;-76
2021/08/19 08:55:40;;;;;;;;;;;16.90;99.90;;;;;;5078405;28;19925;-75
2021/08/19 08:58:07;;;;;;;;;;;16.90;99.90;;;;;;5077932;28;20363;-75
2021/08/19 09:00:34;;;;;;;;;;;16.90;99.90;;;;;;5078097;28;19928;-75
2021/08/19 09:03:01;;;;;;;;;;;16.90;99.90;;;;;;5078035;28;19935;-75
2021/08/19 09:05:29;;;;;;;;;;;17.10;99.90;;;;;;5078153;28;19924;-76
2021/08/19 09:07:56;;;;;;;;;;;17.20;99.90;;;;;;5077896;28;19974;-76
2021/08/19 09:10:25;;;;;;;;;;;17.30;99.90;;;;;;5077776;28;19924;-76
2021/08/19 09:12:52;;;;;;;;;;;17.40;99.90;;;;;;5077964;28;19924;-76
2021/08/19 09:15:23;;;;;;;;;;;17.40;99.90;;;;;;5077783;28;19928;-75
2021/08/19 09:17:52;;;;;;;;;;;17.50;99.90;;;;;;5077691;28;19925;-76
2021/08/19 09:20:21;;;;;;;;;;;17.50;99.90;;;;;;5077613;28;19932;-75
2021/08/19 09:22:53;;;;;;;;;;;17.60;99.90;;;;;;5077601;28;19929;-76
2021/08/19 09:25:26;;;;;;;;;;;17.60;99.90;;;;;;5077478;28;19925;-76
2021/08/19 09:28:10;;;;;;;;;;;17.70;99.90;;;;;;5078055;28;19935;-76
2021/08/19 09:30:39;;;;;;;;;;;17.60;99.90;;;;;;5075516;28;19936;-75
2021/08/19 09:33:07;;;;;;;;;;;17.60;99.90;;;;;;5077511;28;20348;-76
2021/08/19 09:35:35;;;;;;;;;;;17.40;99.90;;;;;;5079928;28;19932;-76
2021/08/19 09:38:06;;;;;;;;;;;17.30;99.90;;;;;;5095349;28;20248;-76
2021/08/19 09:40:34;;;;;;;;;;;17.10;99.90;;;;;;5097190;28;19924;-76
2021/08/19 09:43:01;;;;;;;;;;;17.00;99.90;;;;;;5096310;28;19924;-76
2021/08/19 09:45:28;;;;;;;;;;;16.90;99.90;;;;;;5097399;28;19928;-77
2021/08/19 09:48:06;;;;;;;;;;;16.90;99.90;;;;;;5097418;28;19927;-76
2021/08/19 09:50:34;;;;;;;;;;;16.80;99.90;;;;;;5097380;28;19935;-76
2021/08/19 09:53:14;;;;;;;;;;;16.70;99.90;;;;;;5097284;28;19935;-76
2021/08/19 09:55:42;;;;;;;;;;;16.70;99.90;;;;;;5097149;28;19924;-76
2021/08/19 09:58:09;;;;;;;;;;;16.70;99.90;;;;;;5096822;28;19928;-76
2021/08/19 10:00:38;;;;;;;;;;;16.70;99.90;;;;;;5097056;28;19935;-76
2021/08/19 10:03:05;;;;;;;;;;;16.70;99.90;;;;;;5097002;28;19928;-76
2021/08/19 10:05:32;;;;;;;;;;;16.60;99.90;;;;;;5097177;28;19924;-76
2021/08/19 10:07:58;;;;;;;;;;;16.60;99.90;;;;;;5097066;28;19935;-76
2021/08/19 10:10:25;;;;;;;;;;;16.50;99.90;;;;;;5096828;28;19935;-76
2021/08/19 10:12:54;;;;;;;;;;;16.50;99.90;;;;;;5096779;28;19924;-76
2021/08/19 10:15:20;;;;;;;;;;;16.40;99.90;;;;;;5096798;28;19924;-77
2021/08/19 10:17:48;;;;;;;;;;;16.30;99.90;;;;;;5097055;28;19924;-76
2021/08/19 10:20:16;;;;;;;;;;;16.20;99.90;;;;;;5096559;28;19977;-76
2021/08/19 10:22:42;;;;;;;;;;;16.10;99.90;;;;;;5096740;28;19923;-76
2021/08/19 10:25:10;;;;;;;;;;;16.00;99.90;;;;;;5096460;28;20370;-76
2021/08/19 10:27:37;;;;;;;;;;;15.90;99.90;;;;;;5096704;28;20272;-76
2021/08/19 10:30:05;;;;;;;;;;;15.90;99.90;;;;;;5096600;28;19924;-76
2021/08/19 10:32:32;;;;;;;;;;;15.90;99.90;;;;;;5096618;28;19924;-76
2021/08/19 10:35:00;;;;;;;;;;;15.80;99.90;;;;;;5096488;28;19924;-76
2021/08/19 10:37:45;;;;;;;;;;;15.80;99.90;;;;;;5096346;28;19924;-76
2021/08/19 10:40:28;;;;;;;;;;;15.80;99.90;;;;;;5096380;28;19924;-77
2021/08/19 10:42:55;;;;;;;;;;;15.80;99.90;;;;;;5096475;28;20027;-77
2021/08/19 10:45:42;;;;;;;;;;;15.90;99.90;;;;;;5096144;28;20251;-76
2021/08/19 10:48:22;;;;;;;;;;;15.90;99.90;;;;;;5095497;28;19935;-76
2021/08/19 10:50:49;;;;;;;;;;;16.00;99.90;;;;;;5096063;28;20001;-76
2021/08/19 10:53:16;;;;;;;;;;;16.00;99.90;;;;;;5095989;28;20421;-76
2021/08/19 10:55:43;;;;;;;;;;;16.10;99.90;;;;;;5095991;28;20393;-76
2021/08/19 10:58:22;;;;;;;;;;;16.10;99.90;;;;;;5095643;28;19935;-76
2021/08/19 11:00:50;;;;;;;;;;;16.10;99.90;;;;;;5095680;28;19923;-77
2021/08/19 11:03:33;;;;;;;;;;;16.10;99.90;;;;;;5095815;28;19935;-77
2021/08/19 11:06:01;;;;;;;;;;;16.10;99.90;;;;;;5078844;28;19979;-77
2021/08/19 11:08:40;;;;;;;;;;;16.00;99.90;;;;;;5095601;28;19924;-77
2021/08/19 11:11:08;;;;;;;;;;;16.00;99.90;;;;;;5095822;28;19923;-77
2021/08/19 11:13:35;;;;;;;;;;;16.00;99.90;;;;;;5095769;28;20280;-76
2021/08/19 11:16:05;;;;;;;;;;;16.00;99.90;;;;;;5095694;28;19931;-77
2021/08/19 11:18:33;;;;;;;;;;;16.10;99.90;;;;;;5095559;28;20271;-76
2021/08/19 11:21:00;;;;;;;;;;;16.10;99.90;;;;;;5095420;28;19986;-76
2021/08/19 11:23:27;;;;;;;;;;;16.10;99.90;;;;;;5095523;28;19938;-76
2021/08/19 11:25:58;;;;;;;;;;;16.20;99.90;;;;;;5095233;28;20270;-76
2021/08/19 11:28:25;;;;;;;;;;;16.20;99.90;;;;;;5095608;28;20380;-76
2021/08/19 11:30:52;;;;;;;;;;;16.20;99.90;;;;;;5094637;28;19923;-76
2021/08/19 11:33:22;;;;;;;;;;;16.20;99.90;;;;;;5095331;28;19923;-76
2021/08/19 11:35:49;;;;;;;;;;;16.20;99.90;;;;;;5095391;28;19927;-76
2021/08/19 11:38:16;;;;;;;;;;;16.20;99.90;;;;;;5095926;28;19924;-76
2021/08/19 11:40:44;;;;;;;;;;;16.20;99.90;;;;;;5095554;28;19924;-76
2021/08/19 11:43:21;;;;;;;;;;;16.10;99.90;;;;;;5095365;28;19923;-76
2021/08/19 11:45:48;;;;;;;;;;;16.10;99.90;;;;;;5095531;28;19924;-76
2021/08/19 11:48:14;;;;;;;;;;;16.00;99.90;;;;;;5095304;28;19924;-76
2021/08/19 11:50:46;;;;;;;;;;;16.00;99.90;;;;;;5095238;28;19931;-76
2021/08/19 11:53:14;;;;;;;;;;;16.00;99.90;;;;;;5095465;28;19924;-76
2021/08/19 11:55:42;;;;;;;;;;;16.00;99.90;;;;;;5095219;28;19924;-76
2021/08/19 11:58:19;;;;;;;;;;;16.00;99.90;;;;;;5095064;28;19924;-76
2021/08/19 12:00:57;;;;;;;;;;;16.00;99.90;;;;;;5098633;28;19924;-76
2021/08/19 12:03:25;;;;;;;;;;;16.00;99.90;;;;;;5058906;28;19925;-76
2021/08/19 12:06:03;;;;;;;;;;;16.10;99.90;;;;;;5059415;28;19924;-76
2021/08/19 12:08:31;;;;;;;;;;;16.10;99.90;;;;;;5058939;28;19925;-76
2021/08/19 12:10:58;;;;;;;;;;;16.20;99.90;;;;;;5058979;28;19924;-76
2021/08/19 12:13:27;;;;;;;;;;;16.10;99.90;;;;;;5058963;28;20364;-76
2021/08/19 12:15:54;;;;;;;;;;;16.20;99.90;;;;;;5058923;28;19932;-76
2021/08/19 12:18:23;;;;;;;;;;;16.10;99.90;;;;;;5058713;28;19924;-76
2021/08/19 12:20:49;;;;;;;;;;;16.10;99.90;;;;;;5058656;28;19925;-76
2021/08/19 12:23:20;;;;;;;;;;;16.10;99.90;;;;;;5058902;28;19935;-76
2021/08/19 12:25:48;;;;;;;;;;;16.20;99.90;;;;;;5058770;28;20246;-76
2021/08/19 12:28:16;;;;;;;;;;;16.20;99.90;;;;;;5058564;28;20349;-76
2021/08/19 12:30:57;;;;;;;;;;;16.30;99.90;;;;;;5058523;28;19976;-76
2021/08/19 12:33:32;;;;;;;;;;;16.40;99.90;;;;;;5058708;28;19971;-76
2021/08/19 12:36:14;;;;;;;;;;;16.50;99.90;;;;;;5058650;28;20070;-76
2021/08/19 12:38:43;;;;;;;;;;;16.50;99.90;;;;;;5057911;28;19925;-76
2021/08/19 12:41:13;;;;;;;;;;;16.60;99.90;;;;;;5058531;28;19936;-76
2021/08/19 12:43:40;;;;;;;;;;;16.60;99.90;;;;;;5058577;28;19932;-76
2021/08/19 12:46:07;;;;;;;;;;;16.70;99.90;;;;;;5058496;28;19947;-76
2021/08/19 12:48:35;;;;;;;;;;;16.70;99.90;;;;;;5058402;28;19924;-76
2021/08/19 12:51:19;;;;;;;;;;;16.80;99.90;;;;;;5058122;28;19925;-76
2021/08/19 12:54:04;;;;;;;;;;;16.90;99.90;;;;;;5058298;28;19925;-76
2021/08/19 12:56:31;;;;;;;;;;;16.90;99.90;;;;;;5058218;28;19924;-76
2021/08/19 12:59:00;;;;;;;;;;;16.90;99.90;;;;;;5057933;28;19925;-76
2021/08/19 13:01:27;;;;;;;;;;;16.90;99.90;;;;;;5057860;28;19972;-76
2021/08/19 13:03:54;;;;;;;;;;;17.00;99.90;;;;;;5057796;28;19924;-76
2021/08/19 13:06:21;;;;;;;;;;;17.00;99.90;;;;;;5058133;28;19925;-76
2021/08/19 13:08:49;;;;;;;;;;;17.00;99.90;;;;;;5058099;28;19925;-77
2021/08/19 13:11:18;;;;;;;;;;;17.10;99.90;;;;;;5059198;28;19929;-77
2021/08/19 13:13:48;;;;;;;;;;;17.10;99.90;;;;;;5059014;28;19924;-80
2021/08/19 13:16:16;;;;;;;;;;;17.20;99.90;;;;;;5059268;28;19925;-80
2021/08/19 13:18:44;;;;;;;;;;;17.30;99.90;;;;;;5058163;28;19924;-79
2021/08/19 13:21:12;;;;;;;;;;;17.40;99.90;;;;;;5057614;28;19972;-79
2021/08/19 13:23:40;;;;;;;;;;;17.50;99.90;;;;;;5057652;28;20360;-84
2021/08/19 13:26:11;;;;;;;;;;;17.60;99.90;;;;;;5057680;28;19925;-79
2021/08/19 13:28:50;;;;;;;;;;;17.60;99.90;;;;;;5057403;28;19936;-78
2021/08/19 13:31:18;;;;;;;;;;;17.70;99.90;;;;;;5057540;28;19925;-77
2021/08/19 13:33:47;;;;;;;;;;;17.80;99.90;;;;;;5057562;28;19929;-84
2021/08/19 13:36:15;;;;;;;;;;;17.90;99.90;;;;;;5057620;28;19925;-81
2021/08/19 13:38:43;;;;;;;;;;;18.00;99.90;;;;;;5057475;28;19936;-83
2021/08/19 13:41:11;;;;;;;;;;;18.00;99.90;;;;;;5057067;28;19925;-81
2021/08/19 13:43:40;;;;;;;;;;;18.00;99.90;;;;;;5057237;28;19935;-80
2021/08/19 13:46:11;;;;;;;;;;;18.00;99.90;;;;;;5057210;28;19936;-80
2021/08/19 13:48:39;;;;;;;;;;;18.10;99.90;;;;;;5057354;28;20007;-80
2021/08/19 13:51:07;;;;;;;;;;;18.10;99.90;;;;;;5057305;28;19925;-78
2021/08/19 13:53:35;;;;;;;;;;;18.20;99.90;;;;;;5057202;28;19924;-78
2021/08/19 13:56:03;;;;;;;;;;;18.30;99.90;;;;;;5057103;28;19925;-79
2021/08/19 13:58:30;;;;;;;;;;;18.30;99.90;;;;;;5056844;28;19925;-80
2021/08/19 14:00:59;;;;;;;;;;;18.40;99.90;;;;;;5056855;28;20345;-79
2021/08/19 14:03:27;;;;;;;;;;;18.40;99.90;;;;;;5057043;28;19929;-79
2021/08/19 14:05:56;;;;;;;;;;;18.50;99.90;;;;;;5056963;28;19924;-79
2021/08/19 14:08:24;;;;;;;;;;;18.50;99.90;;;;;;5056875;28;20275;-79
2021/08/19 14:10:52;;;;;;;;;;;18.50;99.90;;;;;;5056688;28;19924;-79
2021/08/19 14:13:19;;;;;;;;;;;18.60;99.90;;;;;;5056784;28;19928;-79
2021/08/19 14:15:48;;;;;;;;;;;18.60;99.90;;;;;;5056718;28;19940;-78